Latest Weather Observations for Camden

IDN60901

Issued at 2:11 am EST Friday 31 July 2015 (issued every 10 minutes, with the page automatically refreshed every 10 minutes)

About weather observations | Map of Sydney area stations | Latest observations for Sydney area | Other Formats
Station Details ID: 068192 Name: CAMDEN AIRPORT AWS Lat: -34.04 Lon: 150.69 Height: 73.9 m
Data from the previous 72 hours. | See also: Recent months at Camden
Date/Time
EST
Tmp

°C
App
Tmp
°C
Dew
Point
°C
Rel
Hum
%
Delta-T

°C
Wind Press
QNH
hPa
Press
MSL
hPa
Rain
since
9 am
mm
Dir
 
Spd
km/h
Gust
km/h
Spd
kts
Gust
kts
31/02:00am 10.6 8.1 1.4 53 3.8 N 4 9 2 5 1018.9 1019.0 0.0
31/01:30am 11.5 7.3 1.5 50 4.2 W 13 17 7 9 1018.9 1019.0 0.0
31/01:00am 12.1 8.6 1.1 47 4.6 W 9 11 5 6 1018.7 1018.8 0.0
31/12:30am 13.4 9.1 0.8 42 5.4 WNW 13 20 7 11 1018.8 1018.9 0.0
31/12:00am 12.9 8.8 2.2 48 4.7 W 13 19 7 10 1019.0 1019.1 0.0
 
Date/Time
EST
Tmp

°C
App
Tmp
°C
Dew
Point
°C
Rel
Hum
%
Delta-T

°C
Wind Press
QNH
hPa
Press
MSL
hPa
Rain
since
9 am
mm
Dir
 
Spd
km/h
Gust
km/h
Spd
kts
Gust
kts
30/11:30pm 12.6 9.3 2.5 50 4.4 W 9 13 5 7 1018.7 1018.8 0.0
30/11:00pm 12.6 8.3 3.0 52 4.2 NNW 15 17 8 9 1018.2 1018.3 0.0
30/10:30pm 12.7 9.1 2.8 51 4.4 NNW 11 15 6 8 1018.5 1018.6 0.0
30/10:00pm 14.0 8.6 2.3 45 5.1 NW 20 30 11 16 1018.9 1019.0 0.0
30/09:30pm 13.6 9.5 2.5 47 4.9 NW 13 17 7 9 1018.7 1018.8 0.0
30/09:00pm 13.9 9.0 2.2 45 5.1 NW 17 22 9 12 1018.9 1019.0 0.0
30/08:30pm 12.3 8.1 1.6 48 4.6 NNW 13 19 7 10 1018.9 1019.0 0.0
30/08:00pm 14.4 9.0 1.0 40 5.8 WNW 19 28 10 15 1019.2 1019.3 0.0
30/07:30pm 14.2 9.9 1.2 41 5.6 NW 13 20 7 11 1019.3 1019.4 0.0
30/07:00pm 14.0 8.9 1.0 41 5.6 NW 17 20 9 11 1019.4 1019.5 0.0
30/06:30pm 14.4 10.0 0.6 39 5.9 NW 13 19 7 10 1019.1 1019.2 0.0
30/06:00pm 14.5 9.5 1.1 40 5.8 NNW 17 22 9 12 1018.8 1018.9 0.0
30/05:30pm 14.5 10.6 1.4 41 5.7 NW 11 15 6 8 1018.7 1018.8 0.0
30/05:00pm 15.3 11.2 2.1 41 5.9 N 13 15 7 8 1018.5 1018.6 0.0
30/04:30pm 16.1 11.2 2.2 39 6.2 N 17 20 9 11 1018.7 1018.8 0.0
30/04:00pm 17.5 12.6 1.9 35 7.0 NNW 17 20 9 11 1018.7 1018.8 0.0
30/03:30pm 18.4 14.5 3.5 37 7.0 N 13 15 7 8 1019.3 1019.4 0.0
30/03:00pm 19.0 14.7 3.2 35 7.4 N 15 19 8 10 1019.8 1019.9 0.0
30/02:30pm 18.4 14.5 3.5 37 7.0 N 13 19 7 10 1019.9 1020.0 0.0
30/02:00pm 18.9 14.6 3.5 36 7.2 N 15 19 8 10 1020.3 1020.4 0.0
30/01:30pm 17.7 13.6 4.6 42 6.3 NNE 15 19 8 10 1021.1 1021.2 0.0
30/01:00pm 17.8 14.8 4.0 40 6.5 NNE 9 19 5 10 1021.4 1021.5 0.0
30/12:30pm 17.1 13.5 4.8 44 5.9 N 13 19 7 10 1022.0 1022.1 0.0
30/12:00pm 16.7 13.2 5.3 47 5.5 N 13 19 7 10 1022.6 1022.7 0.0
30/11:30am 16.4 13.7 5.7 49 5.2 NNW 9 13 5 7 1023.3 1023.4 0.0
30/11:00am 14.1 13.3 6.5 60 3.7 CALM 0 0 0 0 1024.1 1024.2 0.0
30/10:30am 12.3 11.4 5.9 65 3.0 CALM 0 0 0 0 1025.1 1025.2 0.0
30/10:00am 10.3 9.1 6.5 77 1.8 N 2 6 1 3 1025.6 1025.7 0.0
30/09:30am 7.9 7.1 6.5 91 0.6 CALM 0 0 0 0 1026.1 1026.2 0.0
30/09:00am 6.5 5.7 6.4 99 0.0 CALM 0 0 0 0 1026.5 1026.7 0.0
30/08:30am 4.9 3.7 4.8 99 0.0 CALM 0 0 0 0 1026.8 1027.0 0.0
30/08:11am 3.3 1.5 3.2 99 0.0 WSW 2 7 1 4 1026.8 1027.0 0.0
30/08:01am 2.3 0.3 2.2 99 0.0 S 2 7 1 4 1026.8 1027.0 0.0
30/08:00am 2.3 0.3 2.2 99 0.0 S 2 9 1 5 1026.8 1027.0 0.0
30/07:58am 2.2 -0.6 2.1 99 0.0 SSW 6 9 3 5 1026.8 1027.0 0.0
30/07:30am 1.6 -0.2 1.5 99 0.0 CALM 0 0 0 0 1026.7 1026.9 0.0
30/07:10am 0.8 -1.1 0.7 99 0.0 CALM 0 0 0 0 1026.6 1026.8 0.0
30/07:03am 1.2 -0.6 1.1 99 0.0 CALM 0 0 0 0 1026.6 1026.8 0.0
30/07:00am 1.0 -0.8 0.9 99 0.0 CALM 0 0 0 0 1026.6 1026.8 0.0
30/06:57am 1.0 -0.8 0.9 99 0.0 CALM 0 0 0 0 1026.6 1026.8 0.0
30/06:30am 1.1 -0.7 1.0 99 0.0 CALM 0 0 0 0 1026.3 1026.4 0.0
30/06:27am 1.1 -0.7 1.0 99 0.0 CALM 0 6 0 3 1026.3 1026.4 0.0
30/06:22am 1.0 -1.2 0.9 99 0.0 W 2 6 1 3 1026.4 1026.5 0.0
30/06:00am 1.2 -0.6 1.1 99 0.0 CALM 0 0 0 0 1026.4 1026.5 0.0
30/05:59am 1.3 -0.5 1.2 99 0.0 CALM 0 0 0 0 1026.4 1026.5 0.0
30/05:38am 1.0 -2.6 0.9 99 0.0 WSW 9 9 5 5 1026.7 1026.9 0.0
30/05:30am 1.0 -2.0 0.9 99 0.0 WNW 6 11 3 6 1026.6 1026.8 0.0
30/05:28am 1.0 -2.0 0.9 99 0.0 NNE 6 11 3 6 1026.5 1026.7 0.0
30/05:27am 1.0 -1.6 0.9 99 0.0 NE 4 11 2 6 1026.5 1026.7 0.0
30/05:06am 1.6 -0.2 1.5 99 0.0 CALM 0 0 0 0 1026.8 1027.0 0.0
30/05:00am 1.5 -0.3 1.4 99 0.0 CALM 0 0 0 0 1026.9 1027.1 0.0
30/04:44am 1.8 0.1 1.7 99 0.0 CALM 0 0 0 0 1027.0 1027.2 0.0
30/04:30am 1.8 0.1 1.7 99 0.0 CALM 0 0 0 0 1026.7 1026.9 0.0
30/04:03am 2.2 0.5 2.1 99 0.0 CALM 0 0 0 0 1027.0 1027.2 0.0
30/04:00am 2.3 0.7 2.2 99 0.0 CALM 0 0 0 0 1027.1 1027.3 0.0
30/03:59am 2.5 0.9 2.4 99 0.0 CALM 0 0 0 0 1027.2 1027.4 0.0
30/03:30am 3.3 1.8 3.2 99 0.0 CALM 0 0 0 0 1027.5 1027.7 0.0
30/03:20am 3.4 2.0 3.3 99 0.0 CALM 0 0 0 0 1027.4 1027.6 0.0
30/03:17am 3.4 2.0 3.3 99 0.0 CALM 0 0 0 0 1027.4 1027.6 0.0
30/03:09am 3.4 2.0 3.3 99 0.0 CALM 0 0 0 0 1027.4 1027.6 0.0
30/03:00am 3.2 1.7 3.1 99 0.0 CALM 0 0 0 0 1027.5 1027.7 0.0
30/02:30am 4.2 2.9 4.1 99 0.0 CALM 0 0 0 0 1027.4 1027.6 0.0
30/02:22am 3.8 2.4 3.5 98 0.1 CALM 0 4 0 2 1027.5 1027.7 0.0
30/02:00am 4.0 2.6 3.7 98 0.1 CALM 0 6 0 3 1027.6 1027.8 0.0
30/01:30am 4.8 3.6 4.7 99 0.0 CALM 0 0 0 0 1028.0 1028.2 0.0
30/01:00am 4.9 3.7 4.6 98 0.1 CALM 0 0 0 0 1028.8 1029.0 0.0
30/12:30am 4.5 3.2 4.1 97 0.2 CALM 0 0 0 0 1029.1 1029.3 0.0
30/12:00am 4.9 3.7 4.5 97 0.2 CALM 0 6 0 3 1029.3 1029.5 0.0
 
Date/Time
EST
Tmp

°C
App
Tmp
°C
Dew
Point
°C
Rel
Hum
%
Delta-T

°C
Wind Press
QNH
hPa
Press
MSL
hPa
Rain
since
9 am
mm
Dir
 
Spd
km/h
Gust
km/h
Spd
kts
Gust
kts
29/11:30pm 4.7 3.4 4.1 96 0.3 CALM 0 0 0 0 1029.5 1029.6 0.0
29/11:00pm 4.9 3.6 4.3 96 0.3 CALM 0 0 0 0 1030.1 1030.2 0.0
29/10:30pm 4.5 2.3 3.5 93 0.4 SSE 4 7 2 4 1030.4 1030.5 0.0
29/10:00pm 5.3 4.1 4.4 94 0.4 CALM 0 0 0 0 1030.9 1031.0 0.0
29/09:30pm 5.6 4.4 4.7 94 0.4 CALM 0 0 0 0 1031.0 1031.1 0.0
29/09:00pm 6.0 4.9 5.3 95 0.3 CALM 0 0 0 0 1030.7 1030.8 0.0
29/08:30pm 6.0 4.8 4.6 91 0.6 CALM 0 0 0 0 1030.7 1030.8 0.0
29/08:00pm 6.2 4.9 4.2 87 0.9 CALM 0 0 0 0 1030.4 1030.5 0.0
29/07:30pm 7.9 5.7 5.2 83 1.2 SSW 6 7 3 4 1030.5 1030.6 0.0
29/07:00pm 7.9 6.7 4.8 81 1.4 CALM 0 0 0 0 1030.5 1030.6 0.0
29/06:30pm 9.5 7.2 4.7 72 2.1 NE 6 11 3 6 1030.4 1030.5 0.0
29/06:00pm 10.4 9.3 5.0 69 2.4 CALM 0 0 0 0 1030.0 1030.1 0.0
29/05:30pm 11.5 9.2 4.9 64 3.0 NNE 6 6 3 3 1029.7 1029.8 0.0
29/05:00pm 13.9 11.4 4.5 53 4.3 NNE 7 7 4 4 1029.3 1029.5 0.0
29/04:30pm 15.4 12.9 4.8 49 5.0 NNE 7 9 4 5 1029.3 1029.5 0.0
29/04:00pm 16.3 13.3 4.0 44 5.7 NE 9 11 5 6 1029.5 1029.6 0.0
29/03:30pm 16.6 13.6 4.0 43 5.9 NNE 9 13 5 7 1029.5 1029.6 0.0
29/03:00pm 16.6 13.9 3.6 42 6.0 E 7 11 4 6 1030.0 1030.1 0.0
29/02:30pm 16.8 14.3 3.8 42 6.1 NNE 6 15 3 8 1030.3 1030.4 0.0
29/02:00pm 16.6 13.1 3.6 42 6.0 NE 11 15 6 8 1030.7 1030.8 0.0
29/01:30pm 16.7 13.9 3.4 41 6.1 WSW 7 13 4 7 1031.2 1031.3 0.0
29/01:00pm 16.2 14.4 3.3 42 5.9 N 2 7 1 4 1031.6 1031.7 0.0
29/12:30pm 16.0 13.4 3.1 42 5.9 NNW 6 11 3 6 1032.2 1032.3 0.0
29/12:00pm 15.9 13.7 3.4 43 5.7 NE 4 9 2 5 1032.9 1033.0 0.0
29/11:30am 15.5 13.0 4.5 48 5.2 SSE 7 11 4 6 1033.5 1033.6 0.0
29/11:00am 14.4 12.1 4.7 52 4.5 SSE 6 11 3 6 1034.1 1034.2 0.0
29/10:30am 14.0 13.1 5.9 58 3.9 CALM 0 0 0 0 1034.7 1034.8 0.0
29/10:00am 12.0 11.2 6.3 68 2.7 CALM 0 0 0 0 1034.9 1035.0 0.0
29/09:30am 10.4 9.5 6.0 74 2.0 CALM 0 0 0 0 1035.1 1035.2 0.0
29/09:00am 8.3 7.3 5.8 84 1.1 CALM 0 0 0 0 1035.3 1035.4 0.0
29/08:30am 5.8 4.6 4.8 93 0.4 CALM 0 0 0 0 1035.3 1035.4 0.0
29/08:00am 3.1 1.6 3.0 99 0.0 CALM 0 0 0 0 1035.1 1035.2 0.0
29/07:30am 1.1 -1.1 1.0 99 0.0 SW 2 6 1 3 1034.9 1035.0 0.0
29/07:29am 1.1 -1.1 1.0 99 0.0 SW 2 6 1 3 1034.9 1035.0 0.0
29/07:11am 0.9 -1.0 0.8 99 0.0 CALM 0 0 0 0 1034.6 1034.7 0.0
29/07:00am 0.8 -1.1 0.7 99 0.0 CALM 0 0 0 0 1034.6 1034.7 0.0
29/06:30am 0.4 -2.3 0.1 98 0.1 SE 4 9 2 5 1034.3 1034.4 0.0
29/06:00am 0.9 -1.4 0.6 98 0.1 WSW 2 7 1 4 1034.0 1034.1 0.0
29/05:30am 1.7 -1.2 1.6 99 0.0 NE 6 7 3 4 1033.8 1033.9 0.0
29/05:00am 0.9 -2.1 0.6 98 0.1 N 6 9 3 5 1033.7 1033.8 0.0
29/04:30am 2.0 0.3 1.9 99 0.0 CALM 0 0 0 0 1033.6 1033.7 0.0
29/04:00am 1.2 -1.0 0.9 98 0.1 S 2 9 1 5 1033.5 1033.6 0.0
29/03:30am 1.7 -0.8 1.6 99 0.0 ESE 4 7 2 4 1033.3 1033.4 0.0
29/03:00am 1.3 -0.6 0.7 96 0.2 CALM 0 0 0 0 1033.4 1033.5 0.0
29/02:30am 1.9 -0.6 1.6 98 0.1 SE 4 7 2 4 1033.5 1033.6 0.0
29/02:00am 2.2 0.1 1.8 97 0.2 SSE 2 6 1 3 1033.7 1033.8 0.0
29/01:40am 1.9 0.1 1.5 97 0.2 CALM 0 0 0 0 1033.7 1033.8 0.0
29/01:30am 2.1 0.4 1.7 97 0.2 CALM 0 0 0 0 1033.7 1033.8 0.0
29/01:29am 2.1 0.4 1.7 97 0.2 CALM 0 0 0 0 1033.7 1033.8 0.0
29/01:00am 2.7 1.1 2.4 98 0.1 CALM 0 0 0 0 1033.6 1033.7 0.0
29/12:30am 2.8 1.2 2.4 97 0.2 CALM 0 6 0 3 1033.7 1033.8 0.0
29/12:00am 3.2 1.6 2.5 95 0.3 CALM 0 7 0 4 1033.6 1033.7 0.0
 
Date/Time
EST
Tmp

°C
App
Tmp
°C
Dew
Point
°C
Rel
Hum
%
Delta-T

°C
Wind Press
QNH
hPa
Press
MSL
hPa
Rain
since
9 am
mm
Dir
 
Spd
km/h
Gust
km/h
Spd
kts
Gust
kts
28/11:30pm 4.0 1.4 3.1 94 0.4 SSE 6 9 3 5 1033.7 1033.8 0.0
28/11:00pm 3.8 2.3 2.9 94 0.4 CALM 0 0 0 0 1033.6 1033.7 0.0
28/10:30pm 4.5 3.1 3.8 95 0.3 CALM 0 0 0 0 1033.8 1033.9 0.0
28/10:00pm 3.6 1.2 2.1 90 0.6 WSW 4 6 2 3 1033.5 1033.6 0.0
28/09:30pm 4.4 0.8 3.2 92 0.5 SE 11 13 6 7 1033.4 1033.5 0.0
28/09:00pm 4.9 3.1 3.6 91 0.5 NNW 2 6 1 3 1033.4 1033.5 0.0
28/08:30pm 5.2 3.8 3.4 88 0.8 CALM 0 6 0 3 1033.2 1033.3 0.0
28/08:00pm 6.6 4.1 3.9 83 1.1 NNW 6 7 3 4 1033.0 1033.1 0.0
28/07:30pm 6.9 4.6 4.6 85 1.0 N 6 7 3 4 1033.0 1033.1 0.0
28/07:00pm 7.6 6.3 4.0 78 1.5 CALM 0 0 0 0 1032.8 1032.9 0.0
28/06:30pm 10.0 8.8 4.8 70 2.3 CALM 0 0 0 0 1032.2 1032.3 0.0
28/06:00pm 10.8 8.3 3.8 62 3.1 SE 6 7 3 4 1031.8 1031.9 0.0
28/05:30pm 12.3 9.7 4.0 57 3.7 E 7 11 4 6 1031.4 1031.5 0.0
28/05:00pm 13.4 10.7 2.9 49 4.6 SE 6 9 3 5 1031.0 1031.1 0.0
28/04:30pm 14.0 11.1 2.6 46 5.1 SE 7 9 4 5 1031.0 1031.1 0.0
28/04:00pm 15.4 11.3 2.2 41 5.8 SE 13 19 7 10 1030.8 1030.9 0.0
28/03:30pm 16.2 12.0 1.9 38 6.4 S 13 20 7 11 1030.6 1030.7 0.0
28/03:00pm 15.0 12.1 1.5 40 5.9 S 6 9 3 5 1030.6 1030.7 0.0
28/02:30pm 16.7 12.6 2.0 37 6.6 SW 13 19 7 10 1030.5 1030.6 0.0
28/02:00pm 15.8 11.1 0.8 36 6.5 SSW 15 20 8 11 1030.6 1030.7 0.0
28/01:30pm 16.4 11.0 1.3 36 6.7 SSW 19 26 10 14 1030.7 1030.8 0.0
28/01:00pm 16.2 12.2 0.7 35 6.7 SSW 11 19 6 10 1030.9 1031.0 0.0
28/12:30pm 15.5 10.9 1.6 39 6.1 SW 15 22 8 12 1031.2 1031.3 0.0
28/12:00pm 15.1 10.9 1.6 40 5.9 WSW 13 22 7 12 1031.8 1031.9 0.0
28/11:30am 14.9 9.6 1.8 41 5.8 WSW 19 24 10 13 1032.4 1032.5 0.0
28/11:00am 14.2 8.8 1.5 42 5.5 WSW 19 26 10 14 1032.8 1032.9 0.0
28/10:30am 13.8 8.9 2.1 45 5.1 SW 17 24 9 13 1033.2 1033.3 0.0
28/10:00am 12.3 9.5 1.9 49 4.4 SSE 6 9 3 5 1033.3 1033.4 0.0
28/09:30am 11.1 9.1 2.2 54 3.8 SSW 2 7 1 4 1033.0 1033.1 0.0
28/09:00am 9.4 6.5 2.5 62 2.9 SE 7 7 4 4 1033.0 1033.1 0.0
28/08:30am 7.7 4.3 2.0 67 2.4 SE 9 13 5 7 1032.9 1033.0 0.0
28/08:00am 5.5 2.7 2.2 79 1.3 SSE 6 9 3 5 1032.6 1032.7 0.0
28/07:30am 3.2 0.6 0.8 84 0.9 WSW 4 9 2 5 1032.3 1032.4 0.0
28/07:00am 1.5 -2.4 -1.7 79 1.1 S 9 11 5 6 1032.0 1032.1 0.0
28/06:30am 3.1 -0.3 -0.5 77 1.3 SSE 7 9 4 5 1031.7 1031.8 0.0
28/06:00am 3.7 0.4 0.1 77 1.3 SSE 7 9 4 5 1031.2 1031.3 0.0
28/05:30am 5.7 3.9 0.9 71 1.9 CALM 0 7 0 4 1030.8 1030.9 0.0
28/05:00am 4.5 2.1 -0.5 70 1.9 S 2 9 1 5 1030.5 1030.6 0.0
28/04:30am 4.9 1.5 -0.7 67 2.1 SSW 7 11 4 6 1030.4 1030.5 0.0
28/04:00am 7.6 4.0 0.3 60 2.9 SW 9 15 5 8 1030.1 1030.2 0.0
28/03:30am 7.3 3.2 0.1 60 2.8 WSW 11 22 6 12 1030.0 1030.1 0.0
28/03:00am 7.5 2.7 0.3 60 2.8 WSW 15 19 8 10 1029.8 1029.9 0.0
28/02:30am 7.1 2.6 -0.4 59 2.9 SSW 13 20 7 11 1029.9 1030.0 0.0

Latest Capital City Observations: Canberra | Sydney | Melbourne | Brisbane | Adelaide | Perth | Hobart | Darwin

Other Formats:

Comma delimited format used in spreadsheet applications
http://www.bom.gov.au/fwo/IDN60901/IDN60901.94755.axf

JavaScript Object Notation format (JSON) in row-major order
http://www.bom.gov.au/fwo/IDN60901/IDN60901.94755.json